sensor_id;sensor_type;location;lat;lon;timestamp;pressure;altitude;pressure_sealevel;temperature;humidity
22000;BME280;11164;48.818;2.322;2023-05-02T00:00:30;101200.16;;;14.65;41.24
22000;BME280;11164;48.818;2.322;2023-05-02T00:02:56;101201.63;;;14.54;41.13
22000;BME280;11164;48.818;2.322;2023-05-02T00:05:22;101195.16;;;14.49;41.34
22000;BME280;11164;48.818;2.322;2023-05-02T00:07:48;101197.66;;;14.43;41.64
22000;BME280;11164;48.818;2.322;2023-05-02T00:10:13;101186.59;;;14.45;41.65
22000;BME280;11164;48.818;2.322;2023-05-02T00:12:38;101195.59;;;14.46;41.76
22000;BME280;11164;48.818;2.322;2023-05-02T00:15:05;101195.97;;;14.62;41.24
22000;BME280;11164;48.818;2.322;2023-05-02T00:17:30;101192.22;;;14.63;41.26
22000;BME280;11164;48.818;2.322;2023-05-02T00:19:56;101192.03;;;14.58;41.56
22000;BME280;11164;48.818;2.322;2023-05-02T00:22:21;101191.00;;;14.59;41.47
22000;BME280;11164;48.818;2.322;2023-05-02T00:24:46;101189.31;;;14.45;41.72
22000;BME280;11164;48.818;2.322;2023-05-02T00:27:12;101173.06;;;14.38;41.61
22000;BME280;11164;48.818;2.322;2023-05-02T00:29:38;101184.53;;;14.47;41.72
22000;BME280;11164;48.818;2.322;2023-05-02T00:32:05;101181.81;;;14.27;42.13
22000;BME280;11164;48.818;2.322;2023-05-02T00:34:30;101185.78;;;14.11;42.52
22000;BME280;11164;48.818;2.322;2023-05-02T00:36:56;101186.41;;;14.27;42.25
22000;BME280;11164;48.818;2.322;2023-05-02T00:39:21;101182.25;;;14.37;42.11
22000;BME280;11164;48.818;2.322;2023-05-02T00:41:47;101183.88;;;14.52;41.57
22000;BME280;11164;48.818;2.322;2023-05-02T00:44:13;101188.47;;;14.65;41.31
22000;BME280;11164;48.818;2.322;2023-05-02T00:46:38;101180.97;;;14.60;41.50
22000;BME280;11164;48.818;2.322;2023-05-02T00:49:03;101183.25;;;14.63;41.67
22000;BME280;11164;48.818;2.322;2023-05-02T00:51:29;101181.63;;;14.35;41.96
22000;BME280;11164;48.818;2.322;2023-05-02T00:53:55;101186.41;;;14.40;42.05
22000;BME280;11164;48.818;2.322;2023-05-02T00:56:21;101197.25;;;14.60;41.64
22000;BME280;11164;48.818;2.322;2023-05-02T00:58:47;101183.28;;;14.36;41.90
22000;BME280;11164;48.818;2.322;2023-05-02T01:01:40;101193.28;;;14.36;43.91
22000;BME280;11164;48.818;2.322;2023-05-02T01:10:01;101186.84;;;14.37;42.35
22000;BME280;11164;48.818;2.322;2023-05-02T01:12:41;101188.91;;;14.41;42.29
22000;BME280;11164;48.818;2.322;2023-05-02T01:15:10;101193.91;;;14.58;41.79
22000;BME280;11164;48.818;2.322;2023-05-02T01:17:36;101190.59;;;14.56;41.78
22000;BME280;11164;48.818;2.322;2023-05-02T01:20:10;101192.25;;;14.43;42.04
22000;BME280;11164;48.818;2.322;2023-05-02T01:22:37;101201.03;;;14.39;41.88
22000;BME280;11164;48.818;2.322;2023-05-02T01:25:25;101199.56;;;14.23;43.66
22000;BME280;11164;48.818;2.322;2023-05-02T01:30:42;101192.88;;;14.52;41.74
22000;BME280;11164;48.818;2.322;2023-05-02T01:33:11;101192.22;;;14.50;41.92
22000;BME280;11164;48.818;2.322;2023-05-02T01:35:38;101195.78;;;14.57;41.67
22000;BME280;11164;48.818;2.322;2023-05-02T01:38:04;101193.72;;;14.39;42.18
22000;BME280;11164;48.818;2.322;2023-05-02T01:40:32;101198.94;;;14.34;42.42
22000;BME280;11164;48.818;2.322;2023-05-02T01:42:58;101200.59;;;14.22;42.79
22000;BME280;11164;48.818;2.322;2023-05-02T01:45:26;101197.47;;;14.25;42.70
22000;BME280;11164;48.818;2.322;2023-05-02T01:47:52;101200.59;;;14.15;42.74
22000;BME280;11164;48.818;2.322;2023-05-02T01:50:20;101187.25;;;13.94;42.99
22000;BME280;11164;48.818;2.322;2023-05-02T01:52:50;101199.94;;;14.00;42.94
22000;BME280;11164;48.818;2.322;2023-05-02T01:55:17;101200.19;;;14.12;42.76
22000;BME280;11164;48.818;2.322;2023-05-02T01:57:45;101201.44;;;14.16;42.76
22000;BME280;11164;48.818;2.322;2023-05-02T02:00:12;101188.06;;;14.28;42.49
22000;BME280;11164;48.818;2.322;2023-05-02T02:02:39;101193.09;;;14.44;42.27
22000;BME280;11164;48.818;2.322;2023-05-02T02:05:06;101188.91;;;14.35;42.36
22000;BME280;11164;48.818;2.322;2023-05-02T02:07:32;101195.38;;;14.34;42.40
22000;BME280;11164;48.818;2.322;2023-05-02T02:09:58;101189.97;;;14.34;42.44
22000;BME280;11164;48.818;2.322;2023-05-02T02:12:26;101191.00;;;14.26;42.60
22000;BME280;11164;48.818;2.322;2023-05-02T02:14:59;101184.75;;;14.32;42.91
22000;BME280;11164;48.818;2.322;2023-05-02T02:17:33;101194.13;;;14.30;42.75
22000;BME280;11164;48.818;2.322;2023-05-02T02:20:02;101198.72;;;14.29;42.57
22000;BME280;11164;48.818;2.322;2023-05-02T02:22:30;101199.13;;;13.99;43.30
22000;BME280;11164;48.818;2.322;2023-05-02T02:24:59;101213.72;;;14.05;43.21
22000;BME280;11164;48.818;2.322;2023-05-02T02:27:25;101212.47;;;14.01;43.05
22000;BME280;11164;48.818;2.322;2023-05-02T02:29:51;101211.00;;;14.05;43.32
22000;BME280;11164;48.818;2.322;2023-05-02T02:32:16;101216.41;;;13.98;43.42
22000;BME280;11164;48.818;2.322;2023-05-02T02:34:41;101212.00;;;13.84;43.68
22000;BME280;11164;48.818;2.322;2023-05-02T02:37:16;101212.66;;;13.93;43.83
22000;BME280;11164;48.818;2.322;2023-05-02T02:39:52;101210.56;;;13.95;43.74
22000;BME280;11164;48.818;2.322;2023-05-02T02:42:49;101212.50;;;14.08;44.00
22000;BME280;11164;48.818;2.322;2023-05-02T02:45:34;101218.13;;;14.13;42.96
22000;BME280;11164;48.818;2.322;2023-05-02T02:48:19;101226.06;;;14.28;43.51
22000;BME280;11164;48.818;2.322;2023-05-02T02:53:33;101223.97;;;14.16;43.00
22000;BME280;11164;48.818;2.322;2023-05-02T02:56:04;101226.84;;;13.95;43.04
22000;BME280;11164;48.818;2.322;2023-05-02T02:58:56;101222.22;;;13.82;44.51
22000;BME280;11164;48.818;2.322;2023-05-02T03:01:26;101225.19;;;13.94;43.29
22000;BME280;11164;48.818;2.322;2023-05-02T03:03:52;101222.69;;;13.92;43.39
22000;BME280;11164;48.818;2.322;2023-05-02T03:06:19;101221.84;;;13.98;43.08
22000;BME280;11164;48.818;2.322;2023-05-02T03:08:44;101217.91;;;14.01;43.11
22000;BME280;11164;48.818;2.322;2023-05-02T03:11:10;101218.94;;;14.00;43.13
22000;BME280;11164;48.818;2.322;2023-05-02T03:13:35;101215.38;;;13.93;43.41
22000;BME280;11164;48.818;2.322;2023-05-02T03:16:06;101223.91;;;13.90;43.37
22000;BME280;11164;48.818;2.322;2023-05-02T03:18:36;101216.75;;;13.75;43.51
22000;BME280;11164;48.818;2.322;2023-05-02T03:21:02;101221.97;;;13.70;43.78
22000;BME280;11164;48.818;2.322;2023-05-02T03:23:28;101222.81;;;13.77;43.61
22000;BME280;11164;48.818;2.322;2023-05-02T03:25:53;101216.97;;;13.74;43.33
22000;BME280;11164;48.818;2.322;2023-05-02T03:28:18;101228.22;;;13.77;43.23
22000;BME280;11164;48.818;2.322;2023-05-02T03:30:43;101229.09;;;13.78;43.47
22000;BME280;11164;48.818;2.322;2023-05-02T03:33:09;101223.25;;;13.74;43.54
22000;BME280;11164;48.818;2.322;2023-05-02T03:35:34;101227.41;;;13.77;43.39
22000;BME280;11164;48.818;2.322;2023-05-02T03:37:59;101225.78;;;13.89;43.12
22000;BME280;11164;48.818;2.322;2023-05-02T03:40:26;101234.50;;;13.84;43.26
22000;BME280;11164;48.818;2.322;2023-05-02T03:42:51;101238.25;;;13.77;43.39
22000;BME280;11164;48.818;2.322;2023-05-02T03:45:17;101245.56;;;13.83;43.49
22000;BME280;11164;48.818;2.322;2023-05-02T03:47:42;101243.66;;;13.70;43.87
22000;BME280;11164;48.818;2.322;2023-05-02T03:50:08;101234.84;;;13.61;43.94
22000;BME280;11164;48.818;2.322;2023-05-02T03:52:33;101237.97;;;13.52;43.92
22000;BME280;11164;48.818;2.322;2023-05-02T03:55:00;101239.34;;;13.41;44.20
22000;BME280;11164;48.818;2.322;2023-05-02T03:57:29;101226.91;;;13.53;44.24
22000;BME280;11164;48.818;2.322;2023-05-02T03:59:54;101238.16;;;13.57;44.06
22000;BME280;11164;48.818;2.322;2023-05-02T04:02:19;101229.41;;;13.55;44.26
22000;BME280;11164;48.818;2.322;2023-05-02T04:04:45;101225.47;;;13.57;44.04
22000;BME280;11164;48.818;2.322;2023-05-02T04:07:10;101229.63;;;13.60;44.21
22000;BME280;11164;48.818;2.322;2023-05-02T04:09:42;101221.88;;;13.43;44.06
22000;BME280;11164;48.818;2.322;2023-05-02T04:12:07;101232.31;;;13.53;44.33
22000;BME280;11164;48.818;2.322;2023-05-02T04:14:33;101228.34;;;13.49;44.50
22000;BME280;11164;48.818;2.322;2023-05-02T04:16:58;101221.47;;;13.53;44.17
22000;BME280;11164;48.818;2.322;2023-05-02T04:19:23;101228.00;;;13.65;43.92
22000;BME280;11164;48.818;2.322;2023-05-02T04:21:49;101225.06;;;13.60;43.97
22000;BME280;11164;48.818;2.322;2023-05-02T04:24:14;101244.66;;;13.56;44.45
22000;BME280;11164;48.818;2.322;2023-05-02T04:26:40;101245.25;;;13.51;44.14
22000;BME280;11164;48.818;2.322;2023-05-02T04:29:05;101247.13;;;13.50;44.17
22000;BME280;11164;48.818;2.322;2023-05-02T04:31:32;101255.56;;;13.27;45.01
22000;BME280;11164;48.818;2.322;2023-05-02T04:33:58;101259.66;;;13.17;45.10
22000;BME280;11164;48.818;2.322;2023-05-02T04:36:24;101265.38;;;13.35;44.77
22000;BME280;11164;48.818;2.322;2023-05-02T04:38:50;101264.38;;;13.36;44.80
22000;BME280;11164;48.818;2.322;2023-05-02T04:41:15;101269.53;;;13.31;44.75
22000;BME280;11164;48.818;2.322;2023-05-02T04:43:41;101266.59;;;13.26;45.03
22000;BME280;11164;48.818;2.322;2023-05-02T04:46:06;101277.03;;;13.36;45.14
22000;BME280;11164;48.818;2.322;2023-05-02T04:48:32;101282.44;;;13.29;44.99
22000;BME280;11164;48.818;2.322;2023-05-02T04:50:57;101280.06;;;13.54;44.35
22000;BME280;11164;48.818;2.322;2023-05-02T04:53:23;101276.28;;;13.48;44.68
22000;BME280;11164;48.818;2.322;2023-05-02T04:55:48;101284.91;;;13.65;44.35
22000;BME280;11164;48.818;2.322;2023-05-02T04:58:14;101282.22;;;13.65;44.33
22000;BME280;11164;48.818;2.322;2023-05-02T05:00:39;101275.47;;;13.55;44.39
22000;BME280;11164;48.818;2.322;2023-05-02T05:03:05;101283.13;;;13.44;44.85
22000;BME280;11164;48.818;2.322;2023-05-02T05:05:31;101289.66;;;13.57;44.55
22000;BME280;11164;48.818;2.322;2023-05-02T05:07:56;101288.84;;;13.63;44.54
22000;BME280;11164;48.818;2.322;2023-05-02T05:10:22;101289.91;;;13.68;44.59
22000;BME280;11164;48.818;2.322;2023-05-02T05:12:47;101294.53;;;13.75;44.69
22000;BME280;11164;48.818;2.322;2023-05-02T05:15:14;101296.06;;;13.91;44.29
22000;BME280;11164;48.818;2.322;2023-05-02T05:17:39;101297.38;;;14.08;43.94
22000;BME280;11164;48.818;2.322;2023-05-02T05:20:05;101302.84;;;14.35;43.76
22000;BME280;11164;48.818;2.322;2023-05-02T05:22:30;101302.63;;;14.30;43.71
22000;BME280;11164;48.818;2.322;2023-05-02T05:24:56;101311.84;;;14.49;43.62
22000;BME280;11164;48.818;2.322;2023-05-02T05:27:21;101308.03;;;14.30;44.03
22000;BME280;11164;48.818;2.322;2023-05-02T05:29:47;101318.31;;;14.41;44.13
22000;BME280;11164;48.818;2.322;2023-05-02T05:32:12;101315.41;;;14.49;43.95
22000;BME280;11164;48.818;2.322;2023-05-02T05:34:37;101330.44;;;14.78;43.68
22000;BME280;11164;48.818;2.322;2023-05-02T05:37:03;101329.19;;;14.54;44.03
22000;BME280;11164;48.818;2.322;2023-05-02T05:39:28;101339.19;;;14.60;44.34
22000;BME280;11164;48.818;2.322;2023-05-02T05:41:54;101331.69;;;14.69;44.05
22000;BME280;11164;48.818;2.322;2023-05-02T05:44:19;101337.09;;;14.62;44.15
22000;BME280;11164;48.818;2.322;2023-05-02T05:46:49;101342.34;;;14.77;44.03
22000;BME280;11164;48.818;2.322;2023-05-02T05:49:15;101344.44;;;14.95;43.96
22000;BME280;11164;48.818;2.322;2023-05-02T05:51:41;101343.00;;;14.99;43.87
22000;BME280;11164;48.818;2.322;2023-05-02T05:54:06;101351.31;;;14.71;44.32
22000;BME280;11164;48.818;2.322;2023-05-02T05:56:31;101344.66;;;15.14;43.73
22000;BME280;11164;48.818;2.322;2023-05-02T05:58:57;101355.94;;;15.04;43.92
22000;BME280;11164;48.818;2.322;2023-05-02T06:01:22;101359.47;;;15.25;43.80
22000;BME280;11164;48.818;2.322;2023-05-02T06:03:47;101360.09;;;15.33;43.50
22000;BME280;11164;48.818;2.322;2023-05-02T06:06:12;101361.97;;;15.46;43.15
22000;BME280;11164;48.818;2.322;2023-05-02T06:08:38;101362.59;;;15.42;43.73
22000;BME280;11164;48.818;2.322;2023-05-02T06:11:08;101376.44;;;15.07;44.11
22000;BME280;11164;48.818;2.322;2023-05-02T06:13:34;101373.88;;;15.32;43.91
22000;BME280;11164;48.818;2.322;2023-05-02T06:16:00;101367.81;;;15.30;43.86
22000;BME280;11164;48.818;2.322;2023-05-02T06:18:26;101359.91;;;15.15;43.92
22000;BME280;11164;48.818;2.322;2023-05-02T06:20:51;101375.97;;;15.43;43.87
22000;BME280;11164;48.818;2.322;2023-05-02T06:23:17;101382.19;;;15.70;43.24
22000;BME280;11164;48.818;2.322;2023-05-02T06:25:42;101370.94;;;15.40;43.77
22000;BME280;11164;48.818;2.322;2023-05-02T06:28:07;101379.06;;;15.60;43.20
22000;BME280;11164;48.818;2.322;2023-05-02T06:30:33;101386.63;;;15.38;43.81
22000;BME280;11164;48.818;2.322;2023-05-02T06:32:59;101387.03;;;15.35;43.95
22000;BME280;11164;48.818;2.322;2023-05-02T06:35:24;101389.28;;;15.65;43.44
22000;BME280;11164;48.818;2.322;2023-05-02T06:37:49;101389.47;;;15.90;42.79
22000;BME280;11164;48.818;2.322;2023-05-02T06:40:15;101394.31;;;15.61;43.50
22000;BME280;11164;48.818;2.322;2023-05-02T06:42:40;101394.28;;;15.88;43.20
22000;BME280;11164;48.818;2.322;2023-05-02T06:45:06;101385.56;;;16.18;42.71
22000;BME280;11164;48.818;2.322;2023-05-02T06:47:31;101398.56;;;16.16;42.64
22000;BME280;11164;48.818;2.322;2023-05-02T06:49:57;101401.13;;;16.42;42.40
22000;BME280;11164;48.818;2.322;2023-05-02T06:52:22;101396.19;;;16.71;41.82
22000;BME280;11164;48.818;2.322;2023-05-02T06:54:48;101407.50;;;16.68;42.36
22000;BME280;11164;48.818;2.322;2023-05-02T06:57:14;101406.41;;;16.37;42.76
22000;BME280;11164;48.818;2.322;2023-05-02T06:59:39;101397.88;;;16.27;42.88
22000;BME280;11164;48.818;2.322;2023-05-02T07:02:05;101405.47;;;16.50;42.42
22000;BME280;11164;48.818;2.322;2023-05-02T07:04:30;101403.78;;;16.56;42.72
22000;BME280;11164;48.818;2.322;2023-05-02T07:06:55;101407.66;;;16.80;42.25
22000;BME280;11164;48.818;2.322;2023-05-02T07:09:21;101410.41;;;16.98;41.74
22000;BME280;11164;48.818;2.322;2023-05-02T07:11:47;101415.44;;;17.27;41.70
22000;BME280;11164;48.818;2.322;2023-05-02T07:14:13;101407.72;;;17.42;41.13
22000;BME280;11164;48.818;2.322;2023-05-02T07:16:38;101412.09;;;17.24;41.50
22000;BME280;11164;48.818;2.322;2023-05-02T07:19:03;101403.75;;;16.94;42.05
22000;BME280;11164;48.818;2.322;2023-05-02T07:21:30;101399.47;;;17.05;41.93
22000;BME280;11164;48.818;2.322;2023-05-02T07:23:56;101402.63;;;17.27;41.61
22000;BME280;11164;48.818;2.322;2023-05-02T07:26:22;101393.34;;;17.35;41.85
22000;BME280;11164;48.818;2.322;2023-05-02T07:28:47;101400.38;;;17.68;41.17
22000;BME280;11164;48.818;2.322;2023-05-02T07:31:13;101407.97;;;17.84;41.21
22000;BME280;11164;48.818;2.322;2023-05-02T07:33:38;101403.22;;;17.54;41.33
22000;BME280;11164;48.818;2.322;2023-05-02T07:36:04;101406.03;;;17.66;41.30
22000;BME280;11164;48.818;2.322;2023-05-02T07:38:29;101414.25;;;18.03;40.75
22000;BME280;11164;48.818;2.322;2023-05-02T07:40:58;101406.13;;;17.96;40.74
22000;BME280;11164;48.818;2.322;2023-05-02T07:43:24;101409.69;;;17.97;41.23
22000;BME280;11164;48.818;2.322;2023-05-02T07:45:49;101411.72;;;17.65;41.73
22000;BME280;11164;48.818;2.322;2023-05-02T07:48:16;101409.47;;;17.98;40.92
22000;BME280;11164;48.818;2.322;2023-05-02T07:50:41;101410.53;;;18.46;40.00
22000;BME280;11164;48.818;2.322;2023-05-02T07:53:06;101417.41;;;18.67;39.87
22000;BME280;11164;48.818;2.322;2023-05-02T07:55:32;101416.41;;;18.50;40.35
22000;BME280;11164;48.818;2.322;2023-05-02T07:57:58;101420.72;;;18.69;39.94
22000;BME280;11164;48.818;2.322;2023-05-02T08:00:23;101418.13;;;18.74;40.04
22000;BME280;11164;48.818;2.322;2023-05-02T08:02:48;101413.59;;;18.68;40.10
22000;BME280;11164;48.818;2.322;2023-05-02T08:05:14;101410.63;;;18.70;39.99
22000;BME280;11164;48.818;2.322;2023-05-02T08:07:39;101429.91;;;18.87;39.83
22000;BME280;11164;48.818;2.322;2023-05-02T08:10:05;101426.53;;;19.15;39.50
22000;BME280;11164;48.818;2.322;2023-05-02T08:12:31;101418.84;;;19.36;39.14
22000;BME280;11164;48.818;2.322;2023-05-02T08:14:56;101427.97;;;19.41;38.96
22000;BME280;11164;48.818;2.322;2023-05-02T08:17:21;101430.47;;;19.31;39.13
22000;BME280;11164;48.818;2.322;2023-05-02T08:19:47;101440.47;;;19.49;38.90
22000;BME280;11164;48.818;2.322;2023-05-02T08:22:13;101437.88;;;19.54;38.62
22000;BME280;11164;48.818;2.322;2023-05-02T08:24:39;101439.28;;;19.57;38.55
22000;BME280;11164;48.818;2.322;2023-05-02T08:27:04;101439.88;;;19.71;38.41
22000;BME280;11164;48.818;2.322;2023-05-02T08:29:31;101438.69;;;19.55;38.54
22000;BME280;11164;48.818;2.322;2023-05-02T08:31:56;101442.34;;;19.13;39.46
22000;BME280;11164;48.818;2.322;2023-05-02T08:34:21;101443.56;;;19.29;39.06
22000;BME280;11164;48.818;2.322;2023-05-02T08:36:47;101447.25;;;19.70;38.30
22000;BME280;11164;48.818;2.322;2023-05-02T08:39:12;101440.09;;;19.93;37.75
22000;BME280;11164;48.818;2.322;2023-05-02T08:41:37;101439.28;;;20.33;37.34
22000;BME280;11164;48.818;2.322;2023-05-02T08:44:05;101451.06;;;19.93;38.02
22000;BME280;11164;48.818;2.322;2023-05-02T08:46:34;101450.22;;;19.68;38.14
22000;BME280;11164;48.818;2.322;2023-05-02T08:49:00;101462.47;;;19.90;37.86
22000;BME280;11164;48.818;2.322;2023-05-02T08:51:26;101458.69;;;19.91;37.87
22000;BME280;11164;48.818;2.322;2023-05-02T08:53:53;101455.41;;;20.17;37.35
22000;BME280;11164;48.818;2.322;2023-05-02T08:56:18;101458.00;;;20.24;37.21
22000;BME280;11164;48.818;2.322;2023-05-02T08:58:45;101466.59;;;20.04;37.36
22000;BME280;11164;48.818;2.322;2023-05-02T09:01:18;101461.56;;;20.24;36.88
22000;BME280;11164;48.818;2.322;2023-05-02T09:03:47;101443.53;;;20.12;37.13
22000;BME280;11164;48.818;2.322;2023-05-02T09:06:14;101455.56;;;19.75;37.53
22000;BME280;11164;48.818;2.322;2023-05-02T09:08:41;101460.53;;;20.14;37.10
22000;BME280;11164;48.818;2.322;2023-05-02T09:11:09;101462.28;;;20.20;37.07
22000;BME280;11164;48.818;2.322;2023-05-02T09:13:36;101460.03;;;19.10;38.37
22000;BME280;11164;48.818;2.322;2023-05-02T09:16:04;101461.47;;;18.71;38.78
22000;BME280;11164;48.818;2.322;2023-05-02T09:18:35;101468.03;;;18.82;38.50
22000;BME280;11164;48.818;2.322;2023-05-02T09:21:04;101475.44;;;19.05;37.93
22000;BME280;11164;48.818;2.322;2023-05-02T09:25:59;101483.47;;;19.06;38.08
22000;BME280;11164;48.818;2.322;2023-05-02T09:28:42;101487.34;;;18.99;37.33
22000;BME280;11164;48.818;2.322;2023-05-02T09:31:09;101486.25;;;19.30;37.52
22000;BME280;11164;48.818;2.322;2023-05-02T09:33:37;101491.72;;;19.30;37.52
22000;BME280;11164;48.818;2.322;2023-05-02T09:36:04;101492.22;;;19.50;37.53
22000;BME280;11164;48.818;2.322;2023-05-02T09:38:31;101496.84;;;19.50;37.43
22000;BME280;11164;48.818;2.322;2023-05-02T09:40:56;101502.03;;;19.16;37.87
22000;BME280;11164;48.818;2.322;2023-05-02T09:43:22;101497.97;;;18.58;38.98
22000;BME280;11164;48.818;2.322;2023-05-02T09:45:58;101502.59;;;18.27;38.77
22000;BME280;11164;48.818;2.322;2023-05-02T09:48:24;101508.47;;;19.03;37.97
22000;BME280;11164;48.818;2.322;2023-05-02T09:50:50;101509.47;;;18.48;38.60
22000;BME280;11164;48.818;2.322;2023-05-02T09:53:15;101509.69;;;18.47;38.47
22000;BME280;11164;48.818;2.322;2023-05-02T09:55:41;101495.81;;;18.79;38.00
22000;BME280;11164;48.818;2.322;2023-05-02T09:58:06;101510.09;;;19.11;37.69
22000;BME280;11164;48.818;2.322;2023-05-02T10:00:42;101501.63;;;19.78;35.34
22000;BME280;11164;48.818;2.322;2023-05-02T10:03:08;101518.00;;;20.37;35.95
22000;BME280;11164;48.818;2.322;2023-05-02T10:05:38;101503.19;;;20.38;35.88
22000;BME280;11164;48.818;2.322;2023-05-02T10:08:05;101513.94;;;20.28;36.00
22000;BME280;11164;48.818;2.322;2023-05-02T10:10:32;101507.53;;;20.22;36.28
22000;BME280;11164;48.818;2.322;2023-05-02T10:12:58;101507.59;;;20.51;35.99
22000;BME280;11164;48.818;2.322;2023-05-02T10:15:26;101507.09;;;20.54;35.82
22000;BME280;11164;48.818;2.322;2023-05-02T10:17:53;101512.50;;;20.37;36.05
22000;BME280;11164;48.818;2.322;2023-05-02T10:20:24;101500.91;;;20.47;35.84
22000;BME280;11164;48.818;2.322;2023-05-02T10:22:52;101511.88;;;20.47;35.91
22000;BME280;11164;48.818;2.322;2023-05-02T10:25:18;101507.69;;;20.04;36.57
22000;BME280;11164;48.818;2.322;2023-05-02T10:27:44;101501.00;;;19.76;36.88
22000;BME280;11164;48.818;2.322;2023-05-02T10:30:12;101508.59;;;19.39;37.45
22000;BME280;11164;48.818;2.322;2023-05-02T10:32:37;101498.16;;;19.95;36.32
22000;BME280;11164;48.818;2.322;2023-05-02T10:35:04;101503.53;;;20.42;35.66
22000;BME280;11164;48.818;2.322;2023-05-02T10:37:31;101500.88;;;20.71;34.86
22000;BME280;11164;48.818;2.322;2023-05-02T10:40:00;101490.78;;;20.59;35.31
22000;BME280;11164;48.818;2.322;2023-05-02T10:42:27;101509.81;;;20.14;36.22
22000;BME280;11164;48.818;2.322;2023-05-02T10:44:53;101504.78;;;20.22;35.99
22000;BME280;11164;48.818;2.322;2023-05-02T10:47:22;101488.63;;;19.74;35.85
22000;BME280;11164;48.818;2.322;2023-05-02T10:49:52;101512.94;;;19.82;36.49
22000;BME280;11164;48.818;2.322;2023-05-02T10:52:34;101505.97;;;20.27;34.34
22000;BME280;11164;48.818;2.322;2023-05-02T10:55:14;101499.63;;;20.78;33.55
22000;BME280;11164;48.818;2.322;2023-05-02T11:00:28;101507.78;;;21.19;34.52
22000;BME280;11164;48.818;2.322;2023-05-02T11:02:54;101508.13;;;21.40;34.77
22000;BME280;11164;48.818;2.322;2023-05-02T11:05:21;101502.97;;;21.43;34.35
22000;BME280;11164;48.818;2.322;2023-05-02T11:07:47;101502.78;;;21.50;34.41
22000;BME280;11164;48.818;2.322;2023-05-02T11:12:48;101509.66;;;22.03;32.74
22000;BME280;11164;48.818;2.322;2023-05-02T11:15:14;101511.31;;;22.04;33.65
22000;BME280;11164;48.818;2.322;2023-05-02T11:20:32;101504.09;;;21.98;33.76
22000;BME280;11164;48.818;2.322;2023-05-02T11:25:55;101507.59;;;21.09;33.80
22000;BME280;11164;48.818;2.322;2023-05-02T11:30:58;101499.72;;;21.46;34.33
22000;BME280;11164;48.818;2.322;2023-05-02T11:33:26;101505.13;;;21.75;33.71
22000;BME280;11164;48.818;2.322;2023-05-02T11:35:52;101512.63;;;21.63;33.93
22000;BME280;11164;48.818;2.322;2023-05-02T11:38:18;101505.22;;;21.46;34.26
22000;BME280;11164;48.818;2.322;2023-05-02T11:40:58;101508.22;;;21.28;32.30
22000;BME280;11164;48.818;2.322;2023-05-02T11:43:26;101505.47;;;21.45;34.38
22000;BME280;11164;48.818;2.322;2023-05-02T11:45:52;101501.22;;;21.37;34.12
22000;BME280;11164;48.818;2.322;2023-05-02T11:48:19;101493.72;;;20.70;34.63
22000;BME280;11164;48.818;2.322;2023-05-02T11:50:49;101508.78;;;20.43;35.32
22000;BME280;11164;48.818;2.322;2023-05-02T11:53:20;101506.00;;;20.67;34.16
22000;BME280;11164;48.818;2.322;2023-05-02T11:55:51;101510.69;;;20.84;34.86
22000;BME280;11164;48.818;2.322;2023-05-02T11:58:19;101502.00;;;21.21;33.98
22000;BME280;11164;48.818;2.322;2023-05-02T12:00:45;101518.03;;;21.12;33.94
22000;BME280;11164;48.818;2.322;2023-05-02T12:03:28;101512.66;;;21.17;33.48
22000;BME280;11164;48.818;2.322;2023-05-02T12:05:54;101515.84;;;21.26;33.66
22000;BME280;11164;48.818;2.322;2023-05-02T12:08:25;101507.78;;;20.61;34.84
22000;BME280;11164;48.818;2.322;2023-05-02T12:10:51;101517.59;;;20.86;34.27
22000;BME280;11164;48.818;2.322;2023-05-02T12:13:17;101517.03;;;20.32;35.08
22000;BME280;11164;48.818;2.322;2023-05-02T12:15:43;101511.53;;;20.55;34.58
22000;BME280;11164;48.818;2.322;2023-05-02T12:18:09;101522.97;;;20.40;34.70
22000;BME280;11164;48.818;2.322;2023-05-02T12:20:35;101522.75;;;20.83;34.10
22000;BME280;11164;48.818;2.322;2023-05-02T12:23:03;101517.28;;;20.99;34.03
22000;BME280;11164;48.818;2.322;2023-05-02T12:25:31;101512.31;;;21.13;33.49
22000;BME280;11164;48.818;2.322;2023-05-02T12:28:01;101533.63;;;21.57;33.22
22000;BME280;11164;48.818;2.322;2023-05-02T12:30:28;101531.66;;;22.25;32.21
22000;BME280;11164;48.818;2.322;2023-05-02T12:32:58;101529.41;;;21.49;33.22
22000;BME280;11164;48.818;2.322;2023-05-02T12:35:26;101538.91;;;21.13;33.80
22000;BME280;11164;48.818;2.322;2023-05-02T12:37:52;101534.53;;;22.36;32.11
22000;BME280;11164;48.818;2.322;2023-05-02T12:40:21;101545.28;;;23.73;30.19
22000;BME280;11164;48.818;2.322;2023-05-02T12:42:59;101537.53;;;23.70;29.27
22000;BME280;11164;48.818;2.322;2023-05-02T12:45:28;101553.63;;;23.51;30.99
22000;BME280;11164;48.818;2.322;2023-05-02T12:47:58;101535.28;;;23.99;30.23
22000;BME280;11164;48.818;2.322;2023-05-02T12:50:34;101552.81;;;23.51;29.05
22000;BME280;11164;48.818;2.322;2023-05-02T12:53:00;101549.09;;;23.08;31.75
22000;BME280;11164;48.818;2.322;2023-05-02T12:55:27;101549.28;;;22.29;32.53
22000;BME280;11164;48.818;2.322;2023-05-02T12:58:00;101555.47;;;22.20;30.80
22000;BME280;11164;48.818;2.322;2023-05-02T13:00:26;101562.09;;;21.68;33.96
22000;BME280;11164;48.818;2.322;2023-05-02T13:02:51;101558.00;;;22.04;33.12
22000;BME280;11164;48.818;2.322;2023-05-02T13:05:17;101561.53;;;21.20;34.71
22000;BME280;11164;48.818;2.322;2023-05-02T13:07:43;101547.56;;;21.50;33.63
22000;BME280;11164;48.818;2.322;2023-05-02T13:10:09;101557.66;;;21.50;33.78
22000;BME280;11164;48.818;2.322;2023-05-02T13:12:35;101567.00;;;21.20;34.33
22000;BME280;11164;48.818;2.322;2023-05-02T13:15:06;101565.50;;;21.92;32.35
22000;BME280;11164;48.818;2.322;2023-05-02T13:17:32;101563.44;;;21.99;32.85